createdAt,value
2022-08-14T00:02:09.187Z,98830.41
2022-08-14T00:05:15.064Z,98826.69
2022-08-14T00:08:44.762Z,98831.56
2022-08-14T00:11:43.549Z,98819.94
2022-08-14T00:14:47.121Z,98813.09
2022-08-14T00:17:59.346Z,98804.81
2022-08-14T00:21:03.114Z,98803.38
2022-08-14T00:24:09.654Z,98813.09
2022-08-14T00:27:14.473Z,98810.59
2022-08-14T00:30:20.813Z,98808.19
2022-08-14T00:33:24.211Z,98812.50
2022-08-14T00:36:49.790Z,98804.44
2022-08-14T00:39:53.434Z,98804.25
2022-08-14T00:42:58.187Z,98804.78
2022-08-14T00:46:05.284Z,98798.41
2022-08-14T00:49:14.777Z,98799.00
2022-08-14T00:52:19.144Z,98789.28
2022-08-14T00:55:23.337Z,98795.50
2022-08-14T00:58:35.185Z,98792.59
2022-08-14T01:01:39.852Z,98784.06
2022-08-14T01:04:54.408Z,98792.16
2022-08-14T01:07:58.628Z,98795.16
2022-08-14T01:11:02.717Z,98795.88
2022-08-14T01:14:25.699Z,98795.22
2022-08-14T01:17:49.823Z,98783.19
2022-08-14T01:21:13.263Z,98784.25
2022-08-14T01:24:22.995Z,98785.88
2022-08-14T01:27:53.479Z,98781.69
2022-08-14T01:31:00.083Z,98780.09
2022-08-14T01:35:17.492Z,98778.44
2022-08-14T01:37:31.482Z,98785.97
2022-08-14T01:40:41.929Z,98777.97
2022-08-14T01:43:56.714Z,98794.28
2022-08-14T01:47:02.040Z,98794.03
2022-08-14T01:50:11.368Z,98794.53
2022-08-14T01:53:17.850Z,98786.97
2022-08-14T01:56:37.168Z,98795.44
2022-08-14T01:59:44.676Z,98790.03
2022-08-14T02:02:48.226Z,98779.41
2022-08-14T02:06:03.906Z,98788.72
2022-08-14T02:09:23.226Z,98789.28
2022-08-14T02:12:31.053Z,98780.97
2022-08-14T02:15:35.437Z,98774.31
2022-08-14T02:18:40.043Z,98769.19
2022-08-14T02:21:48.732Z,98771.22
2022-08-14T02:24:52.555Z,98765.94
2022-08-14T02:28:22.971Z,98770.44
2022-08-14T02:31:28.366Z,98757.59
2022-08-14T02:34:36.319Z,98758.13
2022-08-14T02:37:47.665Z,98753.72
2022-08-14T02:40:52.055Z,98755.91
2022-08-14T02:44:00.787Z,98756.22
2022-08-14T02:47:07.150Z,98755.03
2022-08-14T02:50:18.159Z,98749.50
2022-08-14T02:53:21.454Z,98752.53
2022-08-14T02:56:29.949Z,98753.03
2022-08-14T02:59:51.498Z,98745.41
2022-08-14T03:02:58.488Z,98754.63
2022-08-14T03:06:03.067Z,98755.03
2022-08-14T03:09:06.944Z,98750.09
2022-08-14T03:12:12.649Z,98744.72
2022-08-14T03:15:22.819Z,98748.59
2022-08-14T03:18:31.598Z,98741.09
2022-08-14T03:21:39.728Z,98735.91
2022-08-14T03:24:44.042Z,98736.34
2022-08-14T03:27:48.288Z,98738.09
2022-08-14T03:31:04.431Z,98733.31
2022-08-14T03:34:24.682Z,98738.38
2022-08-14T03:37:52.003Z,98739.63
2022-08-14T03:40:59.749Z,98746.75
2022-08-14T03:45:25.403Z,98747.53
2022-08-14T03:47:46.153Z,98745.84
2022-08-14T03:50:52.814Z,98750.16
2022-08-14T03:54:04.949Z,98757.31
2022-08-14T03:57:08.825Z,98756.59
2022-08-14T04:00:40.429Z,98768.19
2022-08-14T04:03:39.352Z,98768.38
2022-08-14T04:06:47.551Z,98766.22
2022-08-14T04:09:52.767Z,98760.72
2022-08-14T04:13:03.509Z,98767.56
2022-08-14T04:16:12.490Z,98769.47
2022-08-14T04:19:19.991Z,98779.72
2022-08-14T04:22:23.853Z,98781.78
2022-08-14T04:25:27.413Z,98784.22
2022-08-14T04:29:06.834Z,98787.31
2022-08-14T04:32:58.456Z,98773.03
2022-08-14T04:35:19.000Z,98781.63
2022-08-14T04:38:47.115Z,98782.50
2022-08-14T04:42:11.880Z,98768.38
2022-08-14T04:45:17.684Z,98776.38
2022-08-14T04:48:31.638Z,98776.19
2022-08-14T04:52:04.253Z,98780.22
2022-08-14T04:55:19.103Z,98777.19
2022-08-14T04:58:32.790Z,98773.84
2022-08-14T05:01:40.016Z,98773.84
2022-08-14T05:04:45.132Z,98774.81
2022-08-14T05:08:01.298Z,98780.47
2022-08-14T05:11:07.179Z,98780.94
2022-08-14T05:14:45.432Z,98766.59
2022-08-14T05:17:58.531Z,98765.97
2022-08-14T05:21:59.697Z,98756.53
2022-08-14T05:24:33.848Z,98761.13
2022-08-14T05:27:37.115Z,98758.22
2022-08-14T05:30:43.828Z,98763.91
2022-08-14T05:33:56.552Z,98755.88
2022-08-14T05:37:02.321Z,98762.53
2022-08-14T05:40:10.325Z,98764.44
2022-08-14T05:43:16.511Z,98763.50
2022-08-14T05:46:22.993Z,98764.34
2022-08-14T05:49:33.288Z,98767.34
2022-08-14T05:52:39.213Z,98768.19
2022-08-14T05:55:44.945Z,98769.75
2022-08-14T05:58:48.376Z,98768.06
2022-08-14T06:01:51.690Z,98773.69
2022-08-14T06:04:55.280Z,98765.59
2022-08-14T06:08:02.928Z,98770.03
2022-08-14T06:11:14.888Z,98773.72
2022-08-14T06:14:31.366Z,98776.97
2022-08-14T06:17:47.044Z,98773.34
2022-08-14T06:20:59.331Z,98774.16
2022-08-14T06:24:02.661Z,98773.97
2022-08-14T06:27:09.820Z,98782.97
2022-08-14T06:30:16.255Z,98777.03
2022-08-14T06:33:20.827Z,98781.50
2022-08-14T06:36:26.029Z,98782.19
2022-08-14T06:39:36.294Z,98785.75
2022-08-14T06:42:43.269Z,98785.84
2022-08-14T06:45:53.893Z,98787.44
2022-08-14T06:48:57.954Z,98798.19
2022-08-14T06:52:01.772Z,98787.13
2022-08-14T06:55:05.887Z,98787.53
2022-08-14T06:58:28.725Z,98784.44
2022-08-14T07:01:51.918Z,98777.31
2022-08-14T07:05:22.811Z,98783.13
2022-08-14T07:08:31.612Z,98786.16
2022-08-14T07:11:35.216Z,98781.06
2022-08-14T07:14:40.027Z,98784.34
2022-08-14T07:17:52.141Z,98788.84
2022-08-14T07:20:56.767Z,98781.88
2022-08-14T07:24:00.217Z,98793.97
2022-08-14T07:27:04.183Z,98798.22
2022-08-14T07:30:34.011Z,98799.44
2022-08-14T07:33:37.538Z,98788.28
2022-08-14T07:36:53.649Z,98784.34
2022-08-14T07:40:06.391Z,98797.66
2022-08-14T07:43:14.399Z,98805.13
2022-08-14T07:46:21.174Z,98801.94
2022-08-14T07:49:30.882Z,98803.34
2022-08-14T07:52:34.258Z,98805.81
2022-08-14T07:55:37.599Z,98801.50
2022-08-14T07:58:51.719Z,98810.00
2022-08-14T08:01:58.657Z,98801.19
2022-08-14T08:05:02.714Z,98807.94
2022-08-14T08:08:08.455Z,98801.28
2022-08-14T08:11:36.983Z,98805.63
2022-08-14T08:14:56.873Z,98804.97
2022-08-14T08:18:10.245Z,98804.94
2022-08-14T08:21:33.353Z,98815.84
2022-08-14T08:24:38.853Z,98811.00
2022-08-14T08:27:44.810Z,98810.00
2022-08-14T08:30:51.410Z,98809.44
2022-08-14T08:33:58.025Z,98805.88
2022-08-14T08:37:07.078Z,98807.44
2022-08-14T08:40:11.939Z,98800.75
2022-08-14T08:43:25.893Z,98811.84
2022-08-14T08:46:29.434Z,98810.91
2022-08-14T08:49:53.010Z,98819.28
2022-08-14T08:53:05.223Z,98808.75
2022-08-14T08:56:08.759Z,98816.91
2022-08-14T08:59:21.965Z,98817.19
2022-08-14T09:02:25.966Z,98812.34
2022-08-14T09:05:33.554Z,98809.91
2022-08-14T09:08:37.923Z,98809.28
2022-08-14T09:11:41.310Z,98803.13
2022-08-14T09:14:44.823Z,98805.03
2022-08-14T09:17:48.612Z,98806.88
2022-08-14T09:20:58.770Z,98803.13
2022-08-14T09:24:29.478Z,98808.53
2022-08-14T09:27:26.379Z,98804.44
2022-08-14T09:30:32.049Z,98811.38
2022-08-14T09:33:56.374Z,98809.28
2022-08-14T09:37:18.996Z,98802.97
2022-08-14T09:40:37.264Z,98799.44
2022-08-14T09:43:53.593Z,98782.97
2022-08-14T09:46:58.879Z,98786.75
2022-08-14T09:50:02.226Z,98792.16
2022-08-14T09:53:17.974Z,98782.09
2022-08-14T09:56:30.250Z,98784.66
2022-08-14T09:59:42.224Z,98781.88
2022-08-14T10:02:54.470Z,98809.91
2022-08-14T10:06:07.474Z,98808.53
2022-08-14T10:09:16.831Z,98800.28
2022-08-14T10:12:29.141Z,98790.28
2022-08-14T10:15:34.731Z,98783.59
2022-08-14T10:18:39.875Z,98775.63
2022-08-14T10:23:11.189Z,98760.03
2022-08-14T10:25:15.593Z,98760.13
2022-08-14T10:28:51.638Z,98760.63
2022-08-14T10:31:45.743Z,98754.06
2022-08-14T10:34:52.735Z,98745.16
2022-08-14T10:37:56.991Z,98736.94
2022-08-14T10:41:13.966Z,98740.38
2022-08-14T10:44:21.666Z,98738.28
2022-08-14T10:48:07.499Z,98742.66
2022-08-14T10:51:00.501Z,98742.72
2022-08-14T10:54:16.908Z,98741.91
2022-08-14T10:57:35.671Z,98735.53
2022-08-14T11:00:43.530Z,98725.03
2022-08-14T11:03:56.399Z,98730.47
2022-08-14T11:07:00.551Z,98725.59
2022-08-14T11:10:09.564Z,98723.66
2022-08-14T11:13:23.874Z,98733.19
2022-08-14T11:16:29.566Z,98730.66
2022-08-14T11:19:33.903Z,98725.78
2022-08-14T11:22:56.055Z,98732.44
2022-08-14T11:26:02.382Z,98750.84
2022-08-14T11:29:12.632Z,98756.06
2022-08-14T11:32:20.227Z,98758.44
2022-08-14T11:35:26.612Z,98755.00
2022-08-14T11:38:48.184Z,98754.31
2022-08-14T11:41:55.659Z,98749.78
2022-08-14T11:45:11.006Z,98748.47
2022-08-14T11:49:04.126Z,98758.53
2022-08-14T11:51:42.975Z,98757.91
2022-08-14T11:55:00.646Z,98763.66
2022-08-14T11:58:06.431Z,98750.44
2022-08-14T12:01:11.402Z,98756.56
2022-08-14T12:04:21.705Z,98758.03
2022-08-14T12:07:36.940Z,98757.13
2022-08-14T12:10:58.878Z,98765.56
2022-08-14T12:14:13.396Z,98767.72
2022-08-14T12:17:47.749Z,98756.28
2022-08-14T12:20:54.514Z,98752.25
2022-08-14T12:24:06.146Z,98758.19
2022-08-14T12:27:13.227Z,98755.88
2022-08-14T12:30:29.169Z,98755.94
2022-08-14T12:33:47.060Z,98756.03
2022-08-14T12:37:06.068Z,98758.41
2022-08-14T12:40:15.509Z,98762.69
2022-08-14T12:43:21.604Z,98766.88
2022-08-14T12:46:28.636Z,98786.50
2022-08-14T12:49:34.393Z,98795.75
2022-08-14T12:52:53.951Z,98798.28
2022-08-14T12:56:22.647Z,98798.72
2022-08-14T12:59:37.240Z,98775.59
2022-08-14T13:02:47.005Z,98764.47
2022-08-14T13:06:00.599Z,98744.28
2022-08-14T13:09:07.793Z,98721.34
2022-08-14T13:12:34.801Z,98712.03
2022-08-14T13:15:40.629Z,98720.81
2022-08-14T13:18:46.909Z,98731.28
2022-08-14T13:21:58.802Z,98744.56
2022-08-14T13:25:10.778Z,98768.19
2022-08-14T13:28:30.265Z,98766.16
2022-08-14T13:31:39.562Z,98774.03
2022-08-14T13:34:46.078Z,98769.53
2022-08-14T13:37:53.720Z,98756.94
2022-08-14T13:40:57.392Z,98750.88
2022-08-14T13:44:01.624Z,98754.19
2022-08-14T13:47:07.010Z,98746.06
2022-08-14T13:50:15.479Z,98736.19
2022-08-14T13:53:26.976Z,98735.84
2022-08-14T13:56:40.394Z,98726.81
2022-08-14T13:59:46.160Z,98736.03
2022-08-14T14:02:53.542Z,98742.78
2022-08-14T14:05:58.344Z,98731.00
2022-08-14T14:09:04.787Z,98727.63
2022-08-14T14:12:36.678Z,98715.34
2022-08-14T14:15:33.846Z,98707.41
2022-08-14T14:18:56.182Z,98683.25
2022-08-14T14:22:00.779Z,98662.84
2022-08-14T14:25:09.982Z,98647.50
2022-08-14T14:28:16.900Z,98619.44
2022-08-14T14:31:31.080Z,98639.94
2022-08-14T14:34:37.880Z,98676.03
2022-08-14T14:37:42.230Z,98698.66
2022-08-14T14:41:00.625Z,98682.13
2022-08-14T14:44:06.331Z,98672.63
2022-08-14T14:47:15.632Z,98670.84
2022-08-14T14:50:22.046Z,98700.19
2022-08-14T14:53:31.312Z,98713.09
2022-08-14T14:56:51.481Z,98702.75
2022-08-14T14:59:55.939Z,98694.63
2022-08-14T15:03:00.014Z,98703.22
2022-08-14T15:06:03.827Z,98710.72
2022-08-14T15:09:10.097Z,98705.56
2022-08-14T15:12:55.475Z,98700.06
2022-08-14T15:15:47.619Z,98684.13
2022-08-14T15:18:54.854Z,98679.28
2022-08-14T15:21:59.497Z,98682.31
2022-08-14T15:25:02.925Z,98676.75
2022-08-14T15:28:11.679Z,98678.41
2022-08-14T15:31:16.743Z,98679.47
2022-08-14T15:34:43.445Z,98683.56
2022-08-14T15:37:44.710Z,98677.94
2022-08-14T15:40:56.130Z,98683.59
2022-08-14T15:44:01.142Z,98680.53
2022-08-14T15:47:09.392Z,98683.28
2022-08-14T15:50:13.090Z,98678.84
2022-08-14T15:53:16.623Z,98687.59
2022-08-14T15:56:42.178Z,98696.72
2022-08-14T16:00:03.293Z,98704.59
2022-08-14T16:03:16.476Z,98703.59
2022-08-14T16:06:21.322Z,98693.50
2022-08-14T16:09:26.221Z,98685.34
2022-08-14T16:12:41.577Z,98687.13
2022-08-14T16:15:53.216Z,98686.31
2022-08-14T16:18:59.108Z,98698.78
2022-08-14T16:22:57.189Z,98692.50
2022-08-14T16:25:34.419Z,98685.59
2022-08-14T16:28:39.120Z,98690.56
2022-08-14T16:31:45.048Z,98698.81
2022-08-14T16:34:54.725Z,98695.34
2022-08-14T16:38:19.865Z,98702.59
2022-08-14T16:41:28.267Z,98690.91
2022-08-14T16:44:40.878Z,98688.94
2022-08-14T16:47:47.872Z,98681.63
2022-08-14T16:50:54.013Z,98670.50
2022-08-14T16:54:00.433Z,98669.00
2022-08-14T16:57:22.553Z,98664.84
2022-08-14T17:00:32.715Z,98677.50
2022-08-14T17:03:53.122Z,98682.66
2022-08-14T17:06:58.076Z,98683.28
2022-08-14T17:10:09.840Z,98679.63
2022-08-14T17:13:19.561Z,98673.00
2022-08-14T17:16:24.600Z,98680.06
2022-08-14T17:19:40.274Z,98674.38
2022-08-14T17:22:50.202Z,98679.94
2022-08-14T17:25:53.610Z,98673.19
2022-08-14T17:29:06.751Z,98682.38
2022-08-14T17:35:57.829Z,98691.44
2022-08-14T17:39:06.929Z,98688.16
2022-08-14T17:42:13.474Z,98688.47
2022-08-14T17:45:18.915Z,98693.72
2022-08-14T17:49:14.089Z,98693.41
2022-08-14T17:52:50.166Z,98687.84
2022-08-14T17:56:48.601Z,98694.38
2022-08-14T18:00:12.376Z,98691.22
2022-08-14T18:03:50.292Z,98694.59
2022-08-14T18:06:58.818Z,98689.97
2022-08-14T18:10:52.363Z,98681.94
2022-08-14T18:13:51.143Z,98686.00
2022-08-14T18:16:57.345Z,98678.25
2022-08-14T18:20:01.542Z,98685.22
2022-08-14T18:23:25.158Z,98678.38
2022-08-14T18:26:37.141Z,98678.41
2022-08-14T18:29:54.786Z,98680.13
2022-08-14T18:33:14.142Z,98691.81
2022-08-14T18:36:47.871Z,98691.56
2022-08-14T18:40:03.111Z,98697.22
2022-08-14T18:43:09.031Z,98698.75
2022-08-14T18:46:59.843Z,98696.41
2022-08-14T18:50:00.918Z,98702.25
2022-08-14T18:53:10.623Z,98712.59
2022-08-14T18:56:18.409Z,98702.28
2022-08-14T18:59:35.710Z,98695.03
2022-08-14T19:02:43.776Z,98694.22
2022-08-14T19:05:59.865Z,98703.41
2022-08-14T19:09:04.479Z,98699.53
2022-08-14T19:12:08.236Z,98704.91
2022-08-14T19:15:25.770Z,98698.50
2022-08-14T19:18:38.332Z,98698.22
2022-08-14T19:21:44.316Z,98696.97
2022-08-14T19:24:50.874Z,98686.28
2022-08-14T19:28:31.555Z,98682.47
2022-08-14T19:31:42.480Z,98682.38
2022-08-14T19:34:59.877Z,98687.69
2022-08-14T19:38:03.394Z,98694.06
2022-08-14T19:41:16.123Z,98692.69
2022-08-14T19:44:20.700Z,98690.19
2022-08-14T19:47:41.034Z,98694.09
2022-08-14T19:50:46.895Z,98695.44
2022-08-14T19:53:56.462Z,98707.22
2022-08-14T19:56:59.999Z,98699.25
2022-08-14T20:00:28.342Z,98702.22
2022-08-14T20:03:59.777Z,98706.56
2022-08-14T20:07:09.136Z,98706.91
2022-08-14T20:11:05.558Z,98709.44
2022-08-14T20:14:01.055Z,98705.28
2022-08-14T20:17:06.997Z,98714.88
2022-08-14T20:20:31.754Z,98714.38
2022-08-14T20:23:38.226Z,98711.25
2022-08-14T20:26:46.873Z,98715.50
2022-08-14T20:30:29.717Z,98727.41
2022-08-14T20:33:47.680Z,98732.91
2022-08-14T20:37:01.922Z,98726.81
2022-08-14T20:40:24.195Z,98723.16
2022-08-14T20:43:47.268Z,98717.53
2022-08-14T20:47:01.005Z,98717.50
2022-08-14T20:50:16.671Z,98714.06
2022-08-14T20:53:34.633Z,98709.94
2022-08-14T20:56:44.204Z,98708.47
2022-08-14T20:59:57.214Z,98707.22
2022-08-14T21:03:32.461Z,98705.06
2022-08-14T21:07:22.969Z,98707.09
2022-08-14T21:10:35.412Z,98718.50
2022-08-14T21:14:20.550Z,98722.16
2022-08-14T21:17:04.282Z,98719.69
2022-08-14T21:20:25.610Z,98730.34
2022-08-14T21:23:32.450Z,98730.47
2022-08-14T21:26:51.403Z,98727.28
2022-08-14T21:29:59.927Z,98725.63
2022-08-14T21:33:05.267Z,98728.28
2022-08-14T21:36:21.069Z,98729.50
2022-08-14T21:39:27.234Z,98732.31
2022-08-14T21:42:31.864Z,98729.22
2022-08-14T21:45:39.350Z,98728.31
2022-08-14T21:48:44.256Z,98727.28
2022-08-14T21:51:59.925Z,98721.03
2022-08-14T21:55:12.199Z,98717.66
2022-08-14T21:58:53.150Z,98713.13
2022-08-14T22:02:00.035Z,98712.38
2022-08-14T22:05:05.678Z,98717.53
2022-08-14T22:08:14.379Z,98714.50
2022-08-14T22:11:19.968Z,98705.31
2022-08-14T22:14:25.994Z,98703.50
2022-08-14T22:17:32.446Z,98707.88
2022-08-14T22:20:37.677Z,98703.41
2022-08-14T22:23:42.786Z,98717.25
2022-08-14T22:26:46.553Z,98710.19
2022-08-14T22:29:54.793Z,98702.59
2022-08-14T22:33:01.166Z,98698.09
2022-08-14T22:36:26.278Z,98695.66
2022-08-14T22:39:40.061Z,98700.88
2022-08-14T22:42:57.503Z,98690.13
2022-08-14T22:46:14.345Z,98696.19
2022-08-14T22:50:31.284Z,98704.13
2022-08-14T22:52:49.581Z,98696.19
2022-08-14T22:55:54.579Z,98704.38
2022-08-14T22:58:59.472Z,98708.50
2022-08-14T23:02:06.134Z,98708.09
2022-08-14T23:05:15.812Z,98707.25
2022-08-14T23:09:00.526Z,98702.66
2022-08-14T23:11:46.856Z,98706.06
2022-08-14T23:14:50.482Z,98703.56
2022-08-14T23:17:55.050Z,98703.41
2022-08-14T23:20:59.400Z,98705.09
2022-08-14T23:24:03.268Z,98695.19
2022-08-14T23:27:09.362Z,98697.94
2022-08-14T23:30:34.000Z,98686.28
2022-08-14T23:33:42.028Z,98686.09
2022-08-14T23:36:57.739Z,98693.63
2022-08-14T23:40:02.116Z,98682.91
2022-08-14T23:43:09.345Z,98695.31
2022-08-14T23:46:15.035Z,98698.56
2022-08-14T23:49:20.460Z,98697.53
2022-08-14T23:52:51.094Z,98695.56
2022-08-14T23:55:54.644Z,98694.28
2022-08-14T23:59:03.036Z,98693.94
